createdAt,value
2022-10-03T00:01:25.240Z,63.18
2022-10-03T00:04:08.076Z,63.01
2022-10-03T00:06:51.968Z,63.15
2022-10-03T00:09:44.924Z,63.16
2022-10-03T00:12:21.510Z,63.23
2022-10-03T00:15:00.707Z,62.88
2022-10-03T00:17:39.110Z,62.80
2022-10-03T00:20:15.463Z,62.85
2022-10-03T00:22:50.063Z,62.92
2022-10-03T00:25:35.009Z,62.67
2022-10-03T00:28:19.506Z,63.12
2022-10-03T00:31:03.524Z,62.93
2022-10-03T00:33:40.007Z,62.67
2022-10-03T00:36:14.575Z,63.18
2022-10-03T00:39:23.992Z,62.96
2022-10-03T00:42:17.859Z,62.97
2022-10-03T00:45:13.409Z,62.90
2022-10-03T00:48:06.245Z,62.77
2022-10-03T00:51:02.106Z,62.57
2022-10-03T00:53:43.632Z,62.87
2022-10-03T00:56:36.409Z,63.03
2022-10-03T00:59:26.331Z,63.09
2022-10-03T01:01:55.076Z,62.63
2022-10-03T01:04:45.215Z,62.96
2022-10-03T01:07:30.671Z,62.87
2022-10-03T01:10:14.591Z,62.99
2022-10-03T01:12:58.507Z,62.80
2022-10-03T01:15:39.974Z,62.83
2022-10-03T01:18:20.240Z,62.36
2022-10-03T01:20:59.448Z,62.77
2022-10-03T01:23:57.100Z,62.72
2022-10-03T01:26:48.716Z,62.80
2022-10-03T01:29:41.480Z,62.26
2022-10-03T01:32:15.893Z,62.59
2022-10-03T01:34:50.167Z,62.32
2022-10-03T01:37:24.961Z,62.78
2022-10-03T01:40:01.008Z,62.64
2022-10-03T01:42:41.930Z,62.41
2022-10-03T01:45:29.259Z,62.31
2022-10-03T01:48:01.701Z,62.55
2022-10-03T01:50:36.614Z,62.42
2022-10-03T01:53:13.525Z,62.53
2022-10-03T01:55:55.658Z,62.63
2022-10-03T01:58:28.839Z,62.81
2022-10-03T02:01:07.527Z,62.74
2022-10-03T02:03:40.232Z,62.57
2022-10-03T02:06:20.410Z,62.51
2022-10-03T02:08:56.426Z,62.49
2022-10-03T02:11:32.679Z,62.22
2022-10-03T02:14:14.108Z,62.32
2022-10-03T02:16:45.935Z,62.27
2022-10-03T02:19:21.326Z,62.47
2022-10-03T02:21:51.418Z,62.39
2022-10-03T02:24:30.343Z,62.24
2022-10-03T02:27:21.264Z,62.52
2022-10-03T02:30:09.217Z,62.42
2022-10-03T02:33:03.923Z,62.21
2022-10-03T02:36:18.648Z,62.32
2022-10-03T02:39:04.868Z,62.48
2022-10-03T02:41:57.787Z,62.20
2022-10-03T02:45:20.231Z,62.61
2022-10-03T02:48:31.619Z,62.28
2022-10-03T02:51:29.016Z,62.17
2022-10-03T02:54:41.457Z,61.99
2022-10-03T02:57:29.024Z,61.95
2022-10-03T03:00:08.494Z,62.20
2022-10-03T03:03:07.988Z,62.37
2022-10-03T03:06:20.300Z,62.14
2022-10-03T03:09:13.505Z,62.00
2022-10-03T03:11:59.311Z,61.97
2022-10-03T03:15:02.579Z,61.88
2022-10-03T03:17:36.131Z,61.94
2022-10-03T03:20:32.496Z,62.10
2022-10-03T03:23:19.661Z,61.95
2022-10-03T03:26:05.295Z,62.25
2022-10-03T03:28:47.283Z,62.32
2022-10-03T03:31:18.840Z,62.15
2022-10-03T03:34:00.757Z,61.74
2022-10-03T03:36:36.117Z,61.71
2022-10-03T03:39:19.067Z,62.00
2022-10-03T03:42:12.361Z,61.79
2022-10-03T03:45:11.936Z,61.94
2022-10-03T03:47:56.863Z,61.66
2022-10-03T03:50:35.601Z,62.09
2022-10-03T03:53:24.311Z,61.86
2022-10-03T03:56:06.989Z,61.77
2022-10-03T03:58:42.051Z,61.72
2022-10-03T04:01:38.364Z,61.80
2022-10-03T04:04:21.120Z,61.72
2022-10-03T04:06:58.432Z,61.43
2022-10-03T04:09:44.502Z,61.48
2022-10-03T04:12:25.783Z,61.66
2022-10-03T04:15:13.722Z,61.98
2022-10-03T04:18:17.585Z,61.72
2022-10-03T04:21:01.761Z,61.47
2022-10-03T04:23:50.070Z,61.99
2022-10-03T04:26:31.210Z,61.74
2022-10-03T04:29:24.649Z,61.81
2022-10-03T04:32:08.013Z,61.63
2022-10-03T04:34:51.085Z,61.52
2022-10-03T04:37:35.403Z,61.79
2022-10-03T04:40:24.687Z,61.94
2022-10-03T04:43:04.371Z,61.48
2022-10-03T04:45:56.192Z,61.48
2022-10-03T04:48:38.864Z,61.62
2022-10-03T04:51:15.386Z,61.71
2022-10-03T04:53:51.582Z,61.71
2022-10-03T04:56:34.955Z,61.53
2022-10-03T04:59:11.011Z,61.85
2022-10-03T05:01:48.400Z,61.67
2022-10-03T05:04:27.578Z,61.87
2022-10-03T05:07:07.339Z,61.38
2022-10-03T05:09:43.277Z,61.41
2022-10-03T05:12:22.315Z,61.94
2022-10-03T05:15:09.194Z,61.70
2022-10-03T05:17:47.298Z,61.59
2022-10-03T05:20:38.980Z,61.98
2022-10-03T05:23:29.628Z,61.86
2022-10-03T05:26:39.891Z,61.80
2022-10-03T05:29:03.455Z,61.89
2022-10-03T05:31:45.953Z,61.80
2022-10-03T05:34:23.319Z,62.08
2022-10-03T05:37:08.906Z,61.76
2022-10-03T05:39:44.083Z,62.03
2022-10-03T05:42:35.507Z,61.86
2022-10-03T05:45:07.827Z,62.29
2022-10-03T05:47:49.955Z,62.23
2022-10-03T05:50:42.660Z,62.06
2022-10-03T05:53:27.730Z,62.15
2022-10-03T05:56:06.754Z,61.89
2022-10-03T05:59:33.684Z,61.90
2022-10-03T06:02:32.789Z,62.14
2022-10-03T06:05:23.740Z,61.88
2022-10-03T06:08:20.403Z,62.07
2022-10-03T06:10:55.659Z,61.92
2022-10-03T06:13:39.659Z,62.04
2022-10-03T06:16:23.221Z,61.99
2022-10-03T06:19:15.204Z,62.42
2022-10-03T06:22:34.210Z,62.48
2022-10-03T06:25:28.745Z,62.21
2022-10-03T06:28:37.114Z,62.52
2022-10-03T06:31:14.924Z,62.28
2022-10-03T06:34:08.387Z,62.47
2022-10-03T06:36:55.272Z,62.39
2022-10-03T06:40:25.384Z,62.53
2022-10-03T06:43:20.163Z,62.70
2022-10-03T06:46:19.382Z,62.91
2022-10-03T06:49:22.870Z,62.94
2022-10-03T06:52:41.247Z,62.56
2022-10-03T06:55:35.063Z,62.78
2022-10-03T06:58:25.617Z,63.13
2022-10-03T07:01:00.649Z,62.82
2022-10-03T07:03:48.595Z,63.05
2022-10-03T07:06:40.511Z,62.71
2022-10-03T07:09:53.750Z,63.11
2022-10-03T07:13:00.853Z,63.25
2022-10-03T07:16:08.688Z,63.09
2022-10-03T07:19:02.677Z,63.33
2022-10-03T07:22:18.703Z,63.20
2022-10-03T07:25:18.475Z,63.64
2022-10-03T07:28:16.905Z,63.36
2022-10-03T07:31:00.771Z,63.73
2022-10-03T07:33:47.479Z,63.79
2022-10-03T07:37:01.689Z,63.58
2022-10-03T07:39:57.238Z,63.57
2022-10-03T07:42:52.736Z,63.65
2022-10-03T07:45:34.930Z,64.05
2022-10-03T07:48:17.541Z,63.59
2022-10-03T07:51:13.305Z,63.54
2022-10-03T07:54:07.995Z,63.34
2022-10-03T07:57:07.699Z,63.02
2022-10-03T08:00:22.912Z,61.70
2022-10-03T08:03:24.070Z,61.60
2022-10-03T08:06:26.318Z,61.40
2022-10-03T08:09:37.376Z,60.99
2022-10-03T08:12:43.169Z,60.48
2022-10-03T08:15:20.588Z,60.58
2022-10-03T08:18:34.402Z,61.89
2022-10-03T08:21:03.211Z,62.52
2022-10-03T08:23:55.418Z,62.07
2022-10-03T08:26:35.221Z,62.98
2022-10-03T08:29:41.552Z,62.87
2022-10-03T08:32:40.167Z,63.25
2022-10-03T08:35:31.455Z,63.11
2022-10-03T08:38:33.685Z,64.15
2022-10-03T08:41:38.903Z,64.36
2022-10-03T08:44:37.573Z,63.60
2022-10-03T08:47:31.896Z,63.41
2022-10-03T08:50:32.254Z,63.88
2022-10-03T08:53:28.300Z,63.77
2022-10-03T08:56:05.650Z,64.18
2022-10-03T08:59:13.476Z,65.64
2022-10-03T09:02:04.359Z,65.27
2022-10-03T09:05:14.232Z,65.33
2022-10-03T09:08:19.997Z,66.37
2022-10-03T09:11:14.910Z,65.74
2022-10-03T09:14:29.714Z,66.60
2022-10-03T09:17:15.693Z,66.26
2022-10-03T09:20:06.088Z,66.35
2022-10-03T09:22:54.431Z,66.28
2022-10-03T09:25:40.569Z,66.19
2022-10-03T09:28:42.774Z,65.59
2022-10-03T09:31:26.300Z,66.40
2022-10-03T09:34:32.380Z,66.11
2022-10-03T09:37:38.426Z,66.30
2022-10-03T09:40:34.549Z,66.73
2022-10-03T09:43:26.278Z,66.36
2022-10-03T09:46:33.567Z,66.88
2022-10-03T09:49:37.966Z,66.21
2022-10-03T09:52:27.990Z,66.21
2022-10-03T09:55:34.239Z,66.44
2022-10-03T09:58:26.046Z,66.80
2022-10-03T10:01:15.014Z,66.64
2022-10-03T10:04:15.821Z,66.88
2022-10-03T10:07:18.715Z,66.62
2022-10-03T10:10:20.533Z,66.97
2022-10-03T10:13:33.198Z,66.67
2022-10-03T10:16:31.095Z,66.78
2022-10-03T10:19:42.979Z,66.88
2022-10-03T10:22:47.918Z,67.08
2022-10-03T10:25:50.859Z,67.52
2022-10-03T10:28:44.319Z,67.54
2022-10-03T10:31:52.293Z,67.16
2022-10-03T10:35:08.452Z,66.94
2022-10-03T10:38:22.855Z,67.05
2022-10-03T10:41:19.723Z,67.06
2022-10-03T10:44:27.204Z,67.27
2022-10-03T10:47:34.064Z,67.19
2022-10-03T10:50:35.928Z,67.21
2022-10-03T10:53:41.177Z,67.36
2022-10-03T10:57:01.344Z,67.67
2022-10-03T11:00:07.889Z,67.51
2022-10-03T11:03:11.691Z,67.37
2022-10-03T11:06:27.480Z,67.03
2022-10-03T11:09:39.401Z,66.95
2022-10-03T11:12:40.530Z,66.67
2022-10-03T11:15:47.793Z,66.69
2022-10-03T11:19:20.596Z,66.21
2022-10-03T11:22:36.667Z,65.92
2022-10-03T11:25:55.495Z,65.52
2022-10-03T11:28:43.205Z,65.57
2022-10-03T11:31:50.865Z,64.95
2022-10-03T11:35:03.121Z,64.98
2022-10-03T11:37:44.196Z,64.87
2022-10-03T11:40:33.415Z,65.06
2022-10-03T11:43:36.627Z,65.29
2022-10-03T11:46:22.523Z,65.52
2022-10-03T11:48:57.603Z,66.01
2022-10-03T11:51:43.630Z,66.56
2022-10-03T11:54:31.531Z,66.13
2022-10-03T11:57:09.379Z,65.61
2022-10-03T12:00:00.168Z,65.35
2022-10-03T12:02:56.940Z,65.58
2022-10-03T12:05:35.670Z,65.07
2022-10-03T12:08:37.055Z,64.61
2022-10-03T12:11:16.086Z,64.95
2022-10-03T12:14:05.241Z,65.06
2022-10-03T12:16:53.359Z,65.29
2022-10-03T12:19:31.001Z,65.30
2022-10-03T12:22:06.345Z,65.26
2022-10-03T12:24:37.876Z,65.32
2022-10-03T12:27:19.437Z,64.67
2022-10-03T12:29:59.005Z,64.67
2022-10-03T12:32:49.889Z,64.44
2022-10-03T12:35:34.747Z,65.05
2022-10-03T12:38:22.693Z,64.42
2022-10-03T12:41:01.887Z,63.97
2022-10-03T12:43:46.802Z,63.51
2022-10-03T12:46:20.015Z,64.12
2022-10-03T12:48:56.090Z,64.89
2022-10-03T12:51:40.635Z,64.65
2022-10-03T12:54:23.563Z,63.36
2022-10-03T12:57:14.132Z,63.51
2022-10-03T12:59:48.679Z,63.04
2022-10-03T13:02:29.916Z,63.58
2022-10-03T13:05:24.705Z,63.17
2022-10-03T13:07:56.809Z,63.24
2022-10-03T13:10:35.309Z,63.86
2022-10-03T13:13:19.221Z,63.44
2022-10-03T13:16:19.799Z,64.29
2022-10-03T13:18:55.083Z,65.06
2022-10-03T13:21:45.389Z,65.52
2022-10-03T13:24:24.650Z,63.58
2022-10-03T13:26:59.286Z,63.51
2022-10-03T13:29:31.839Z,62.93
2022-10-03T13:32:25.264Z,62.37
2022-10-03T13:35:54.963Z,62.08
2022-10-03T13:38:47.069Z,62.44
2022-10-03T13:41:30.026Z,62.59
2022-10-03T13:44:02.094Z,63.35
2022-10-03T13:46:44.544Z,64.25
2022-10-03T13:49:20.288Z,64.81
2022-10-03T13:51:57.098Z,64.81
2022-10-03T13:54:47.823Z,64.33
2022-10-03T13:57:18.427Z,64.72
2022-10-03T13:59:57.918Z,64.38
2022-10-03T14:02:44.037Z,64.67
2022-10-03T14:05:34.319Z,64.36
2022-10-03T14:08:14.534Z,64.93
2022-10-03T14:11:15.146Z,65.12
2022-10-03T14:13:59.744Z,64.20
2022-10-03T14:16:31.698Z,63.93
2022-10-03T14:19:10.344Z,63.20
2022-10-03T14:21:56.660Z,63.76
2022-10-03T14:24:37.138Z,63.99
2022-10-03T14:27:14.144Z,64.37
2022-10-03T14:29:56.856Z,64.29
2022-10-03T14:32:46.872Z,63.53
2022-10-03T14:35:25.489Z,64.59
2022-10-03T14:38:03.296Z,64.49
2022-10-03T14:40:39.934Z,64.70
2022-10-03T14:43:14.857Z,64.63
2022-10-03T14:45:47.704Z,64.96
2022-10-03T14:48:19.824Z,64.42
2022-10-03T14:50:52.535Z,64.48
2022-10-03T14:53:25.647Z,64.32
2022-10-03T14:56:01.842Z,64.22
2022-10-03T14:58:33.477Z,64.31
2022-10-03T15:01:13.383Z,64.45
2022-10-03T15:03:45.343Z,64.79
2022-10-03T15:06:33.810Z,64.59
2022-10-03T15:09:07.196Z,64.27
2022-10-03T15:11:38.560Z,64.38
2022-10-03T15:14:10.064Z,64.97
2022-10-03T15:16:45.818Z,64.95
2022-10-03T15:19:18.977Z,65.12
2022-10-03T15:21:51.610Z,65.21
2022-10-03T15:24:25.463Z,65.26
2022-10-03T15:26:58.968Z,65.12
2022-10-03T15:29:27.278Z,65.48
2022-10-03T15:31:57.622Z,65.22
2022-10-03T15:34:33.023Z,65.43
2022-10-03T15:37:07.174Z,64.86
2022-10-03T15:39:40.539Z,64.81
2022-10-03T15:42:22.980Z,65.02
2022-10-03T15:44:54.143Z,65.08
2022-10-03T15:47:24.353Z,64.94
2022-10-03T15:49:56.847Z,64.95
2022-10-03T15:52:32.430Z,64.78
2022-10-03T15:55:12.619Z,65.07
2022-10-03T15:57:46.579Z,65.16
2022-10-03T16:00:22.543Z,65.07
2022-10-03T16:02:57.425Z,64.98
2022-10-03T16:05:25.832Z,65.23
2022-10-03T16:08:01.477Z,65.01
2022-10-03T16:10:37.486Z,65.18
2022-10-03T16:13:21.054Z,65.06
2022-10-03T16:16:07.390Z,65.01
2022-10-03T16:18:51.046Z,65.00
2022-10-03T16:21:31.202Z,65.17
2022-10-03T16:24:02.397Z,65.05
2022-10-03T16:26:36.721Z,65.00
2022-10-03T16:29:13.275Z,65.18
2022-10-03T16:31:48.498Z,65.19
2022-10-03T16:34:19.607Z,65.09
2022-10-03T16:36:50.385Z,65.22
2022-10-03T16:39:25.127Z,65.21
2022-10-03T16:41:55.827Z,65.24
2022-10-03T16:44:31.124Z,65.49
2022-10-03T16:47:04.230Z,65.41
2022-10-03T16:49:57.325Z,65.30
2022-10-03T16:52:31.812Z,65.33
2022-10-03T16:55:03.950Z,65.47
2022-10-03T16:57:41.976Z,65.46
2022-10-03T17:00:16.899Z,65.58
2022-10-03T17:02:45.197Z,65.91
2022-10-03T17:05:15.712Z,66.08
2022-10-03T17:07:46.082Z,65.73
2022-10-03T17:10:34.702Z,65.68
2022-10-03T17:13:12.661Z,65.83
2022-10-03T17:15:49.948Z,65.77
2022-10-03T17:18:26.513Z,65.59
2022-10-03T17:20:57.518Z,65.88
2022-10-03T17:23:33.609Z,65.72
2022-10-03T17:26:06.749Z,65.69
2022-10-03T17:28:41.401Z,65.91
2022-10-03T17:31:28.652Z,65.85
2022-10-03T17:34:03.445Z,65.85
2022-10-03T17:36:56.326Z,65.66
2022-10-03T17:39:39.937Z,65.78
2022-10-03T17:42:22.873Z,65.81
2022-10-03T17:45:00.427Z,65.84
2022-10-03T17:47:38.504Z,65.87
2022-10-03T17:50:12.181Z,65.75
2022-10-03T17:52:42.809Z,65.82
2022-10-03T17:55:18.692Z,65.80
2022-10-03T17:57:50.336Z,65.97
2022-10-03T18:00:22.481Z,66.00
2022-10-03T18:02:59.400Z,65.81
2022-10-03T18:05:31.918Z,66.01
2022-10-03T18:08:05.913Z,65.73
2022-10-03T18:10:38.392Z,65.79
2022-10-03T18:13:16.177Z,65.71
2022-10-03T18:16:19.606Z,65.75
2022-10-03T18:19:21.702Z,65.66
2022-10-03T18:22:07.586Z,65.71
2022-10-03T18:24:49.168Z,65.79
2022-10-03T18:27:42.439Z,65.85
2022-10-03T18:30:18.216Z,65.76
2022-10-03T18:32:46.794Z,65.66
2022-10-03T18:35:21.153Z,65.75
2022-10-03T18:38:12.369Z,65.66
2022-10-03T18:40:47.521Z,65.57
2022-10-03T18:43:32.468Z,65.55
2022-10-03T18:46:09.636Z,65.62
2022-10-03T18:48:43.857Z,65.54
2022-10-03T18:51:18.239Z,65.75
2022-10-03T18:53:49.799Z,65.76
2022-10-03T18:56:25.091Z,65.64
2022-10-03T18:59:08.952Z,65.70
2022-10-03T19:01:46.169Z,65.37
2022-10-03T19:04:18.581Z,65.56
2022-10-03T19:06:52.379Z,65.48
2022-10-03T19:09:27.169Z,65.65
2022-10-03T19:12:02.966Z,65.44
2022-10-03T19:14:36.401Z,65.56
2022-10-03T19:17:21.316Z,65.70
2022-10-03T19:19:58.785Z,65.52
2022-10-03T19:22:31.922Z,65.75
2022-10-03T19:25:02.689Z,65.46
2022-10-03T19:27:44.383Z,65.42
2022-10-03T19:30:18.537Z,65.73
2022-10-03T19:32:51.343Z,65.54
2022-10-03T19:35:21.934Z,65.67
2022-10-03T19:37:53.539Z,65.42
2022-10-03T19:40:43.459Z,65.32
2022-10-03T19:43:32.811Z,65.84
2022-10-03T19:46:12.724Z,65.67
2022-10-03T19:48:52.083Z,65.61
2022-10-03T19:51:25.681Z,65.47
2022-10-03T19:53:57.770Z,65.80
2022-10-03T19:56:27.653Z,65.52
2022-10-03T19:59:04.562Z,65.54
2022-10-03T20:01:43.394Z,65.43
2022-10-03T20:04:12.309Z,65.43
2022-10-03T20:06:44.128Z,65.56
2022-10-03T20:09:23.557Z,65.61
2022-10-03T20:11:56.422Z,65.58
2022-10-03T20:14:27.708Z,65.56
2022-10-03T20:17:01.017Z,65.51
2022-10-03T20:19:33.683Z,65.45
2022-10-03T20:22:06.947Z,65.61
2022-10-03T20:24:40.209Z,65.53
2022-10-03T20:27:22.127Z,65.76
2022-10-03T20:29:59.927Z,65.59
2022-10-03T20:32:28.939Z,65.48
2022-10-03T20:34:59.831Z,65.67
2022-10-03T20:37:49.172Z,65.76
2022-10-03T20:40:30.088Z,65.58
2022-10-03T20:43:14.659Z,65.65
2022-10-03T20:45:44.943Z,65.64
2022-10-03T20:48:17.996Z,65.66
2022-10-03T20:50:47.545Z,65.63
2022-10-03T20:53:20.641Z,65.88
2022-10-03T20:55:52.350Z,65.67
2022-10-03T20:58:29.924Z,65.67
2022-10-03T21:01:02.476Z,65.68
2022-10-03T21:03:39.264Z,65.65
2022-10-03T21:06:19.136Z,65.58
2022-10-03T21:08:48.689Z,65.71
2022-10-03T21:11:22.474Z,65.74
2022-10-03T21:13:55.763Z,65.50
2022-10-03T21:16:28.820Z,65.75
2022-10-03T21:19:00.966Z,65.72
2022-10-03T21:21:33.789Z,65.46
2022-10-03T21:24:05.915Z,65.78
2022-10-03T21:26:42.357Z,65.68
2022-10-03T21:29:18.826Z,65.66
2022-10-03T21:31:57.001Z,65.63
2022-10-03T21:34:31.440Z,65.78
2022-10-03T21:37:12.491Z,65.75
2022-10-03T21:39:51.283Z,65.54
2022-10-03T21:42:26.669Z,65.77
2022-10-03T21:45:09.316Z,65.81
2022-10-03T21:47:45.420Z,65.74
2022-10-03T21:50:21.205Z,65.67
2022-10-03T21:53:00.386Z,65.64
2022-10-03T21:55:52.761Z,65.63
2022-10-03T21:58:43.268Z,65.85
2022-10-03T22:01:18.312Z,65.53
2022-10-03T22:03:52.612Z,65.97
2022-10-03T22:06:24.913Z,65.59
2022-10-03T22:08:54.549Z,65.71
2022-10-03T22:11:34.689Z,65.47
2022-10-03T22:14:14.273Z,65.88
2022-10-03T22:16:50.585Z,65.72
2022-10-03T22:19:22.432Z,65.61
2022-10-03T22:22:07.544Z,65.68
2022-10-03T22:24:46.831Z,65.75
2022-10-03T22:27:21.146Z,65.72
2022-10-03T22:29:58.704Z,65.90
2022-10-03T22:32:31.535Z,65.86
2022-10-03T22:35:07.913Z,65.88
2022-10-03T22:37:35.713Z,65.64
2022-10-03T22:40:04.828Z,65.87
2022-10-03T22:42:40.224Z,65.94
2022-10-03T22:45:12.049Z,65.88
2022-10-03T22:47:41.323Z,65.84
2022-10-03T22:50:13.444Z,65.96
2022-10-03T22:52:44.655Z,65.87
2022-10-03T22:55:16.128Z,65.63
2022-10-03T22:57:45.925Z,65.73
2022-10-03T23:00:18.429Z,65.59
2022-10-03T23:02:50.618Z,65.67
2022-10-03T23:05:27.727Z,65.96
2022-10-03T23:08:08.139Z,65.62
2022-10-03T23:10:51.835Z,65.59
2022-10-03T23:13:35.999Z,65.53
2022-10-03T23:16:16.357Z,65.64
2022-10-03T23:18:54.306Z,65.97
2022-10-03T23:21:22.198Z,65.62
2022-10-03T23:24:03.335Z,65.78
2022-10-03T23:26:45.254Z,65.61
2022-10-03T23:29:14.335Z,65.74
2022-10-03T23:31:55.376Z,65.60
2022-10-03T23:34:46.382Z,65.65
2022-10-03T23:37:42.444Z,65.84
2022-10-03T23:40:30.720Z,65.69
2022-10-03T23:43:06.548Z,65.86
2022-10-03T23:45:36.499Z,65.91
2022-10-03T23:48:10.163Z,65.63
2022-10-03T23:50:43.008Z,65.79
2022-10-03T23:53:21.451Z,65.80
2022-10-03T23:55:49.458Z,65.52
2022-10-03T23:58:27.396Z,65.57
